66R

Robert R Wells Jr Airport

Columbus, Texas, USA
METAR K66R 161015Z AUTO 00000KT 10SM CLR 01/M03 A3026 RMK AO2 T00061029
Observed Flight Rules
Dec-16 @ 10:15 UTC (3 hours ago) Visual Flight Rules
Visibility Clouds
10 miles
  • Clear skies
Temperatures Readings
Current 1°C / 34°F
Dewpoint -3°C / 27°F
Humidity 75%
Altimeter 30.26" Hg
Pressure 1025 hPa
Elevation 74
METAR K66R 161015Z AUTO 00000KT 10SM CLR 01/M03 A3026 RMK AO2 T00061029
Observed Flight Rules
Dec-16 @ 10:15 UTC
(3 hours ago)
VFR
Clouds
  • Clear skies
Temperature Dewpoint
1°C / 34°F -3°C / 27°F
Humidity Altimeter Pressure
75% 30.26" Hg 1025 hPa